Billings, MT (59101)

10:27 PM MDT on July 27, 2016 (GMT -0600)
| | Change Station

Elev -9999 ft 0.00 °N, 0.00 °E | Updated

Thunderstorm
Thunderstorm
69 °F
Feels Like 69 °F
N
7
Wind Variable Wind from NNE
Gusts mph

Today
High -- | Low -- °F
--% Chance of Precip.
Yesterday
High -- | Low -- °F
Precip. -- in
Pressure 30.08 in
Visibility 10.0 miles
Clouds Mostly Cloudy 11000 ft
Dew Point 58 °F
Humidity 68%
Rainfall --
Snow Depth Not available.
5:51 AM 8:48 PM
Last Quarter, 36% visible
METAR KBIL 280353Z 06012KT 10SM BKN110 23/13 A3017 RMK AO2 SLP184 OCNL LTG DSNT E SW CB DSNT E SW T02280133 $
Pressure 30.08 in
Visibility 10.0 miles
Clouds Mostly Cloudy 11000 ft
Dew Point 58 °F
Humidity 68%
Rainfall --
Snow Depth Not available.
5:51 AM 8:48 PM
Last Quarter, 36% visible
METAR KBIL 280353Z 06012KT 10SM BKN110 23/13 A3017 RMK AO2 SLP184 OCNL LTG DSNT E SW CB DSNT E SW T02280133 $

10-Day Weather Forecast

Almanac

Astronomy

Jul. 27, 2016 Rise Set
Actual Time
Civil Twilight
Nautical Twilight
Astronomical Twilight
Moon
Length of Visible Light
Length of Day
Tomorrow will be .
, % of the Moon is Illuminated

Today's Extremes

State Highs State Lows

Community

WunderPhotos

Upload Photos

1,928,058 photos uploaded!

WunderBlog® & News

Nearby

Air Quality

  Air Quality AQ Index Pollutant
Not available.

Snow Depth

Station Depth Elevation

Earthquake Activity

City Distance Mag. Time & Date
Minimum magnitude displayed is 2.5.

Coastal Water Temperatures

Place Temperature

Stations

Nearby Weather Stations

Station Location Temp. Windchill Dew Point Humidity Wind Precip. Elev Updated Type
                   

Watches & Warnings

There are currently no watches in effect.